aviador You're here:

GCXO Decoded Metar

TENERIFE in SPAIN
Report Time2017-09-25 04:00:00
UTC Time2017-09-25 04:28:20
Flight Rules vfr VFR
WindVRB at 01 kt
Visibility9999 m
Phenomena:N/A
Clouds:N/A
CeilingNone
Temp19°C (ISA +8)
Dew Point19°C (100% RH)
QNH1022 hPa
Density Alt3,022 ft
Elevation2,073 ft
Report Wrong Elevation
Raw Report
GCXO 250400Z AUTO VRB01KT CAVOK 19/19 Q1022=

Extra information for GCXO:More info

Metar Taf Metar & Taf Last 4 Metars F.Rules Stats Wind Profile Meteogram Temp Stats Airport Information Weather charts Add Link Nearby VenuesMetar ALERT Operation Metar Decoded Social comments